sensor_id;sensor_type;location;lat;lon;timestamp;temperature;humidity
42095;DHT22;27753;55.724;37.612;2022-12-24T00:00:48;3.40;99.90
42095;DHT22;27753;55.724;37.612;2022-12-24T00:03:33;3.40;99.90
42095;DHT22;27753;55.724;37.612;2022-12-24T00:06:02;3.40;99.90
42095;DHT22;27753;55.724;37.612;2022-12-24T00:08:28;3.30;99.90
42095;DHT22;27753;55.724;37.612;2022-12-24T00:11:13;3.30;99.90
42095;DHT22;27753;55.724;37.612;2022-12-24T00:13:39;3.40;99.90
42095;DHT22;27753;55.724;37.612;2022-12-24T00:16:05;3.40;99.90
42095;DHT22;27753;55.724;37.612;2022-12-24T00:18:50;3.30;99.90
42095;DHT22;27753;55.724;37.612;2022-12-24T00:21:34;3.30;99.90
42095;DHT22;27753;55.724;37.612;2022-12-24T00:24:00;3.30;99.90
42095;DHT22;27753;55.724;37.612;2022-12-24T00:29:33;3.30;99.90
42095;DHT22;27753;55.724;37.612;2022-12-24T00:31:59;3.30;99.90
42095;DHT22;27753;55.724;37.612;2022-12-24T00:34:25;3.30;99.90
42095;DHT22;27753;55.724;37.612;2022-12-24T00:36:51;3.30;99.90
42095;DHT22;27753;55.724;37.612;2022-12-24T00:45:23;3.30;99.90
42095;DHT22;27753;55.724;37.612;2022-12-24T00:47:51;3.30;99.90
42095;DHT22;27753;55.724;37.612;2022-12-24T00:53:38;3.30;99.90
42095;DHT22;27753;55.724;37.612;2022-12-24T00:56:05;3.30;99.90
42095;DHT22;27753;55.724;37.612;2022-12-24T00:58:31;3.30;99.90
42095;DHT22;27753;55.724;37.612;2022-12-24T01:00:57;3.30;99.90
42095;DHT22;27753;55.724;37.612;2022-12-24T01:03:23;3.30;99.90
42095;DHT22;27753;55.724;37.612;2022-12-24T01:08:27;3.30;99.90
42095;DHT22;27753;55.724;37.612;2022-12-24T01:11:11;3.30;99.90
42095;DHT22;27753;55.724;37.612;2022-12-24T01:22:14;3.30;99.90
42095;DHT22;27753;55.724;37.612;2022-12-24T01:24:41;3.20;99.90
42095;DHT22;27753;55.724;37.612;2022-12-24T01:27:07;3.20;99.90
42095;DHT22;27753;55.724;37.612;2022-12-24T01:29:52;3.20;99.90
42095;DHT22;27753;55.724;37.612;2022-12-24T01:32:20;3.20;99.90
42095;DHT22;27753;55.724;37.612;2022-12-24T01:35:05;3.20;99.90
42095;DHT22;27753;55.724;37.612;2022-12-24T01:40:39;3.20;99.90
42095;DHT22;27753;55.724;37.612;2022-12-24T01:43:42;3.20;99.90
42095;DHT22;27753;55.724;37.612;2022-12-24T01:46:29;3.20;99.90
42095;DHT22;27753;55.724;37.612;2022-12-24T01:49:14;3.20;99.90
42095;DHT22;27753;55.724;37.612;2022-12-24T01:52:00;3.30;99.90
42095;DHT22;27753;55.724;37.612;2022-12-24T01:54:39;3.30;99.90
42095;DHT22;27753;55.724;37.612;2022-12-24T01:57:18;3.30;99.90
42095;DHT22;27753;55.724;37.612;2022-12-24T02:02:31;3.30;99.90
42095;DHT22;27753;55.724;37.612;2022-12-24T02:10:48;3.40;99.90
42095;DHT22;27753;55.724;37.612;2022-12-24T02:13:16;3.30;99.90
42095;DHT22;27753;55.724;37.612;2022-12-24T02:16:13;3.40;99.90
42095;DHT22;27753;55.724;37.612;2022-12-24T02:25:09;3.40;99.90
42095;DHT22;27753;55.724;37.612;2022-12-24T02:33:19;3.40;99.90
42095;DHT22;27753;55.724;37.612;2022-12-24T02:44:16;3.50;99.90
42095;DHT22;27753;55.724;37.612;2022-12-24T02:46:44;3.40;99.90
42095;DHT22;27753;55.724;37.612;2022-12-24T02:49:28;3.50;99.90
42095;DHT22;27753;55.724;37.612;2022-12-24T02:54:38;3.50;99.90
42095;DHT22;27753;55.724;37.612;2022-12-24T03:00:17;3.50;99.90
42095;DHT22;27753;55.724;37.612;2022-12-24T03:03:00;3.50;99.90
42095;DHT22;27753;55.724;37.612;2022-12-24T03:11:44;3.50;99.90
42095;DHT22;27753;55.724;37.612;2022-12-24T03:17:17;3.50;99.90
42095;DHT22;27753;55.724;37.612;2022-12-24T03:22:30;3.50;99.90
42095;DHT22;27753;55.724;37.612;2022-12-24T03:25:15;3.50;99.90
42095;DHT22;27753;55.724;37.612;2022-12-24T03:27:41;3.50;99.90
42095;DHT22;27753;55.724;37.612;2022-12-24T03:32:54;3.50;99.90
42095;DHT22;27753;55.724;37.612;2022-12-24T03:35:39;3.40;99.90
42095;DHT22;27753;55.724;37.612;2022-12-24T03:41:09;3.40;99.90
42095;DHT22;27753;55.724;37.612;2022-12-24T03:43:53;3.30;99.90
42095;DHT22;27753;55.724;37.612;2022-12-24T03:46:19;3.30;99.90
42095;DHT22;27753;55.724;37.612;2022-12-24T03:49:04;3.30;99.90
42095;DHT22;27753;55.724;37.612;2022-12-24T03:54:33;3.30;99.90
42095;DHT22;27753;55.724;37.612;2022-12-24T03:56:58;3.10;99.90
42095;DHT22;27753;55.724;37.612;2022-12-24T03:59:24;3.00;99.90
42095;DHT22;27753;55.724;37.612;2022-12-24T04:04:36;3.00;99.90
42095;DHT22;27753;55.724;37.612;2022-12-24T04:15:57;2.90;99.90
42095;DHT22;27753;55.724;37.612;2022-12-24T04:18:42;2.90;99.90
42095;DHT22;27753;55.724;37.612;2022-12-24T04:21:26;2.80;99.90
42095;DHT22;27753;55.724;37.612;2022-12-24T04:23:52;2.80;99.90
42095;DHT22;27753;55.724;37.612;2022-12-24T04:26:18;2.80;99.90
42095;DHT22;27753;55.724;37.612;2022-12-24T04:31:47;2.70;99.90
42095;DHT22;27753;55.724;37.612;2022-12-24T04:34:13;2.70;99.90
42095;DHT22;27753;55.724;37.612;2022-12-24T04:36:39;2.70;99.90
42095;DHT22;27753;55.724;37.612;2022-12-24T04:39:23;2.60;99.90
42095;DHT22;27753;55.724;37.612;2022-12-24T04:41:49;2.60;99.90
42095;DHT22;27753;55.724;37.612;2022-12-24T04:53:05;2.50;99.90
42095;DHT22;27753;55.724;37.612;2022-12-24T04:55:50;2.50;99.90
42095;DHT22;27753;55.724;37.612;2022-12-24T04:58:35;2.60;99.90
42095;DHT22;27753;55.724;37.612;2022-12-24T05:04:04;2.60;99.90
42095;DHT22;27753;55.724;37.612;2022-12-24T05:06:31;2.60;99.90
42095;DHT22;27753;55.724;37.612;2022-12-24T05:12:01;2.50;99.90
42095;DHT22;27753;55.724;37.612;2022-12-24T05:17:14;2.50;99.90
42095;DHT22;27753;55.724;37.612;2022-12-24T05:23:01;2.50;99.90
42095;DHT22;27753;55.724;37.612;2022-12-24T05:28:56;2.50;99.90
42095;DHT22;27753;55.724;37.612;2022-12-24T05:31:24;2.60;99.90
42095;DHT22;27753;55.724;37.612;2022-12-24T05:36:53;2.70;99.90
42095;DHT22;27753;55.724;37.612;2022-12-24T05:53:57;2.70;99.90
42095;DHT22;27753;55.724;37.612;2022-12-24T05:56:41;2.60;99.90
42095;DHT22;27753;55.724;37.612;2022-12-24T06:04:55;2.60;99.90
42095;DHT22;27753;55.724;37.612;2022-12-24T06:07:24;2.70;99.90
42095;DHT22;27753;55.724;37.612;2022-12-24T06:10:08;2.70;99.90
42095;DHT22;27753;55.724;37.612;2022-12-24T06:15:57;2.60;99.90
42095;DHT22;27753;55.724;37.612;2022-12-24T06:18:23;2.60;99.90
42095;DHT22;27753;55.724;37.612;2022-12-24T06:29:40;2.60;99.90
42095;DHT22;27753;55.724;37.612;2022-12-24T06:32:06;2.60;99.90
42095;DHT22;27753;55.724;37.612;2022-12-24T06:34:50;2.60;99.90
42095;DHT22;27753;55.724;37.612;2022-12-24T06:37:35;2.60;99.90
42095;DHT22;27753;55.724;37.612;2022-12-24T06:40:19;2.60;99.90
42095;DHT22;27753;55.724;37.612;2022-12-24T06:42:48;2.70;99.90
42095;DHT22;27753;55.724;37.612;2022-12-24T06:45:14;2.70;99.90
42095;DHT22;27753;55.724;37.612;2022-12-24T06:47:59;2.70;99.90
42095;DHT22;27753;55.724;37.612;2022-12-24T06:53:28;2.70;99.90
42095;DHT22;27753;55.724;37.612;2022-12-24T06:56:05;2.70;99.90
42095;DHT22;27753;55.724;37.612;2022-12-24T06:58:32;2.70;99.90
42095;DHT22;27753;55.724;37.612;2022-12-24T07:01:18;2.60;99.90
42095;DHT22;27753;55.724;37.612;2022-12-24T07:03:44;2.60;99.90
42095;DHT22;27753;55.724;37.612;2022-12-24T07:06:29;2.60;99.90
42095;DHT22;27753;55.724;37.612;2022-12-24T07:08:55;2.60;99.90
42095;DHT22;27753;55.724;37.612;2022-12-24T07:11:23;2.60;99.90
42095;DHT22;27753;55.724;37.612;2022-12-24T07:14:08;2.60;99.90
42095;DHT22;27753;55.724;37.612;2022-12-24T07:19:23;2.60;99.90
42095;DHT22;27753;55.724;37.612;2022-12-24T07:25:10;2.60;99.90
42095;DHT22;27753;55.724;37.612;2022-12-24T07:27:37;2.60;99.90
42095;DHT22;27753;55.724;37.612;2022-12-24T07:38:39;2.60;99.90
42095;DHT22;27753;55.724;37.612;2022-12-24T07:44:27;2.60;99.90
42095;DHT22;27753;55.724;37.612;2022-12-24T07:46:53;2.60;99.90
42095;DHT22;27753;55.724;37.612;2022-12-24T07:52:03;2.60;99.90
42095;DHT22;27753;55.724;37.612;2022-12-24T07:54:29;2.60;99.90
42095;DHT22;27753;55.724;37.612;2022-12-24T07:57:14;2.60;99.90
42095;DHT22;27753;55.724;37.612;2022-12-24T07:59:40;2.60;99.90
42095;DHT22;27753;55.724;37.612;2022-12-24T08:04:59;2.60;99.90
42095;DHT22;27753;55.724;37.612;2022-12-24T08:07:25;2.60;99.90
42095;DHT22;27753;55.724;37.612;2022-12-24T08:15:20;2.60;99.90
42095;DHT22;27753;55.724;37.612;2022-12-24T08:17:46;2.60;99.90
42095;DHT22;27753;55.724;37.612;2022-12-24T08:20:12;2.60;99.90
42095;DHT22;27753;55.724;37.612;2022-12-24T08:22:56;2.60;99.90
42095;DHT22;27753;55.724;37.612;2022-12-24T08:25:25;2.70;99.90
42095;DHT22;27753;55.724;37.612;2022-12-24T08:34:03;2.60;99.90
42095;DHT22;27753;55.724;37.612;2022-12-24T08:40:20;2.50;99.90
42095;DHT22;27753;55.724;37.612;2022-12-24T08:43:05;2.50;99.90
42095;DHT22;27753;55.724;37.612;2022-12-24T08:45:31;2.40;99.90
42095;DHT22;27753;55.724;37.612;2022-12-24T08:51:04;2.20;99.90
42095;DHT22;27753;55.724;37.612;2022-12-24T08:53:32;2.20;99.90
42095;DHT22;27753;55.724;37.612;2022-12-24T08:56:03;2.20;99.90
42095;DHT22;27753;55.724;37.612;2022-12-24T08:58:32;2.20;99.90
42095;DHT22;27753;55.724;37.612;2022-12-24T09:00:58;2.30;99.90
42095;DHT22;27753;55.724;37.612;2022-12-24T09:08:56;2.20;99.90
42095;DHT22;27753;55.724;37.612;2022-12-24T09:14:06;2.20;99.90
42095;DHT22;27753;55.724;37.612;2022-12-24T09:16:32;2.30;99.90
42095;DHT22;27753;55.724;37.612;2022-12-24T09:18:58;2.30;99.90
42095;DHT22;27753;55.724;37.612;2022-12-24T09:21:27;2.20;99.90
42095;DHT22;27753;55.724;37.612;2022-12-24T09:23:53;2.20;99.90
42095;DHT22;27753;55.724;37.612;2022-12-24T09:26:22;2.20;99.90
42095;DHT22;27753;55.724;37.612;2022-12-24T09:31:58;2.20;99.90
42095;DHT22;27753;55.724;37.612;2022-12-24T09:37:41;2.20;99.90
42095;DHT22;27753;55.724;37.612;2022-12-24T09:46:23;2.10;99.90
42095;DHT22;27753;55.724;37.612;2022-12-24T09:55:42;2.20;99.90
42095;DHT22;27753;55.724;37.612;2022-12-24T09:57:43;2.10;99.90
42095;DHT22;27753;55.724;37.612;2022-12-24T10:02:55;2.10;99.90
42095;DHT22;27753;55.724;37.612;2022-12-24T10:08:26;2.10;99.90
42095;DHT22;27753;55.724;37.612;2022-12-24T10:28:17;2.00;99.90
42095;DHT22;27753;55.724;37.612;2022-12-24T10:30:48;2.00;99.90
42095;DHT22;27753;55.724;37.612;2022-12-24T10:33:31;2.00;99.90
42095;DHT22;27753;55.724;37.612;2022-12-24T10:35:58;2.00;99.90
42095;DHT22;27753;55.724;37.612;2022-12-24T10:38:24;2.00;99.90
42095;DHT22;27753;55.724;37.612;2022-12-24T10:40:53;2.00;99.90
42095;DHT22;27753;55.724;37.612;2022-12-24T10:43:23;2.00;99.90
42095;DHT22;27753;55.724;37.612;2022-12-24T10:45:55;2.10;99.90
42095;DHT22;27753;55.724;37.612;2022-12-24T10:48:37;2.00;99.90
42095;DHT22;27753;55.724;37.612;2022-12-24T10:54:13;2.00;99.90
42095;DHT22;27753;55.724;37.612;2022-12-24T10:56:48;2.00;99.90
42095;DHT22;27753;55.724;37.612;2022-12-24T10:59:35;2.00;99.90
42095;DHT22;27753;55.724;37.612;2022-12-24T11:02:29;2.10;99.90
42095;DHT22;27753;55.724;37.612;2022-12-24T11:04:55;2.00;99.90
42095;DHT22;27753;55.724;37.612;2022-12-24T11:07:28;2.10;99.90
42095;DHT22;27753;55.724;37.612;2022-12-24T11:10:03;2.10;99.90
42095;DHT22;27753;55.724;37.612;2022-12-24T11:12:46;2.10;99.90
42095;DHT22;27753;55.724;37.612;2022-12-24T11:15:21;2.20;99.90
42095;DHT22;27753;55.724;37.612;2022-12-24T11:18:13;2.30;99.90
42095;DHT22;27753;55.724;37.612;2022-12-24T11:20:39;2.30;99.90
42095;DHT22;27753;55.724;37.612;2022-12-24T11:23:12;2.30;99.90
42095;DHT22;27753;55.724;37.612;2022-12-24T11:25:40;2.30;99.90
42095;DHT22;27753;55.724;37.612;2022-12-24T11:28:20;2.40;99.90
42095;DHT22;27753;55.724;37.612;2022-12-24T11:31:03;2.50;99.90
42095;DHT22;27753;55.724;37.612;2022-12-24T11:33:46;2.50;99.90
42095;DHT22;27753;55.724;37.612;2022-12-24T11:36:17;2.60;99.90
42095;DHT22;27753;55.724;37.612;2022-12-24T11:38:52;2.60;99.90
42095;DHT22;27753;55.724;37.612;2022-12-24T11:41:19;2.60;99.90
42095;DHT22;27753;55.724;37.612;2022-12-24T11:43:49;2.60;99.90
42095;DHT22;27753;55.724;37.612;2022-12-24T11:46:34;2.60;99.90
42095;DHT22;27753;55.724;37.612;2022-12-24T11:49:28;2.60;99.90
42095;DHT22;27753;55.724;37.612;2022-12-24T11:54:44;2.60;99.90
42095;DHT22;27753;55.724;37.612;2022-12-24T11:57:16;2.60;99.90
42095;DHT22;27753;55.724;37.612;2022-12-24T11:59:48;2.70;99.90
42095;DHT22;27753;55.724;37.612;2022-12-24T12:02:27;2.70;99.90
42095;DHT22;27753;55.724;37.612;2022-12-24T12:05:02;2.80;99.90
42095;DHT22;27753;55.724;37.612;2022-12-24T12:07:34;2.80;99.90
42095;DHT22;27753;55.724;37.612;2022-12-24T12:12:45;2.70;99.90
42095;DHT22;27753;55.724;37.612;2022-12-24T12:15:16;2.70;99.90
42095;DHT22;27753;55.724;37.612;2022-12-24T12:20:51;2.60;99.90
42095;DHT22;27753;55.724;37.612;2022-12-24T12:23:27;2.70;99.90
42095;DHT22;27753;55.724;37.612;2022-12-24T12:28:56;2.60;99.90
42095;DHT22;27753;55.724;37.612;2022-12-24T12:31:43;2.70;99.90
42095;DHT22;27753;55.724;37.612;2022-12-24T12:37:13;2.70;99.90
42095;DHT22;27753;55.724;37.612;2022-12-24T12:39:40;2.70;99.90
42095;DHT22;27753;55.724;37.612;2022-12-24T12:42:26;2.70;99.90
42095;DHT22;27753;55.724;37.612;2022-12-24T12:45:20;2.70;99.90
42095;DHT22;27753;55.724;37.612;2022-12-24T12:48:14;2.70;99.90
42095;DHT22;27753;55.724;37.612;2022-12-24T12:50:47;2.70;99.90
42095;DHT22;27753;55.724;37.612;2022-12-24T12:53:26;2.60;99.90
42095;DHT22;27753;55.724;37.612;2022-12-24T12:58:31;2.70;99.90
42095;DHT22;27753;55.724;37.612;2022-12-24T13:01:10;2.60;99.90
42095;DHT22;27753;55.724;37.612;2022-12-24T13:04:24;2.60;99.90
42095;DHT22;27753;55.724;37.612;2022-12-24T13:20:58;2.60;99.90
42095;DHT22;27753;55.724;37.612;2022-12-24T13:23:26;2.60;99.90
42095;DHT22;27753;55.724;37.612;2022-12-24T13:25:55;2.60;99.90
42095;DHT22;27753;55.724;37.612;2022-12-24T13:36:06;2.70;99.90
42095;DHT22;27753;55.724;37.612;2022-12-24T13:38:40;2.70;99.90
42095;DHT22;27753;55.724;37.612;2022-12-24T13:44:20;2.80;99.90
42095;DHT22;27753;55.724;37.612;2022-12-24T13:49:21;2.80;99.90
42095;DHT22;27753;55.724;37.612;2022-12-24T13:51:50;2.70;99.90
42095;DHT22;27753;55.724;37.612;2022-12-24T13:54:27;2.80;99.90
42095;DHT22;27753;55.724;37.612;2022-12-24T13:56:53;2.80;99.90
42095;DHT22;27753;55.724;37.612;2022-12-24T14:01:57;2.80;99.90
42095;DHT22;27753;55.724;37.612;2022-12-24T14:04:30;2.80;99.90
42095;DHT22;27753;55.724;37.612;2022-12-24T14:06:59;2.80;99.90
42095;DHT22;27753;55.724;37.612;2022-12-24T14:09:28;2.80;99.90
42095;DHT22;27753;55.724;37.612;2022-12-24T14:14:34;2.90;99.90
42095;DHT22;27753;55.724;37.612;2022-12-24T14:17:02;2.90;99.90
42095;DHT22;27753;55.724;37.612;2022-12-24T14:19:41;2.90;99.90
42095;DHT22;27753;55.724;37.612;2022-12-24T14:24:55;2.90;99.90
42095;DHT22;27753;55.724;37.612;2022-12-24T14:27:38;2.90;99.90
42095;DHT22;27753;55.724;37.612;2022-12-24T14:30:19;2.80;99.90
42095;DHT22;27753;55.724;37.612;2022-12-24T14:32:49;2.80;99.90
42095;DHT22;27753;55.724;37.612;2022-12-24T14:35:21;2.90;99.90
42095;DHT22;27753;55.724;37.612;2022-12-24T14:38:01;2.90;99.90
42095;DHT22;27753;55.724;37.612;2022-12-24T14:40:30;2.80;99.90
42095;DHT22;27753;55.724;37.612;2022-12-24T14:53:34;2.80;99.90
42095;DHT22;27753;55.724;37.612;2022-12-24T14:56:20;2.80;99.90
42095;DHT22;27753;55.724;37.612;2022-12-24T14:58:52;2.90;99.90
42095;DHT22;27753;55.724;37.612;2022-12-24T15:01:27;2.90;99.90
42095;DHT22;27753;55.724;37.612;2022-12-24T15:06:50;2.90;99.90
42095;DHT22;27753;55.724;37.612;2022-12-24T15:09:26;2.90;99.90
42095;DHT22;27753;55.724;37.612;2022-12-24T15:11:54;2.90;99.90
42095;DHT22;27753;55.724;37.612;2022-12-24T15:14:28;2.90;99.90
42095;DHT22;27753;55.724;37.612;2022-12-24T15:16:55;2.90;99.90
42095;DHT22;27753;55.724;37.612;2022-12-24T15:19:34;3.00;99.90
42095;DHT22;27753;55.724;37.612;2022-12-24T15:22:07;3.00;99.90
42095;DHT22;27753;55.724;37.612;2022-12-24T15:24:46;2.90;99.90
42095;DHT22;27753;55.724;37.612;2022-12-24T15:27:21;2.90;99.90
42095;DHT22;27753;55.724;37.612;2022-12-24T15:29:51;2.90;99.90
42095;DHT22;27753;55.724;37.612;2022-12-24T15:32:19;2.90;99.90
42095;DHT22;27753;55.724;37.612;2022-12-24T15:34:55;2.90;99.90
42095;DHT22;27753;55.724;37.612;2022-12-24T15:37:26;2.80;99.90
42095;DHT22;27753;55.724;37.612;2022-12-24T15:40:26;2.90;99.90
42095;DHT22;27753;55.724;37.612;2022-12-24T15:42:52;2.90;99.90
42095;DHT22;27753;55.724;37.612;2022-12-24T15:45:22;2.90;99.90
42095;DHT22;27753;55.724;37.612;2022-12-24T15:48:05;2.90;99.90
42095;DHT22;27753;55.724;37.612;2022-12-24T15:50:37;3.00;99.90
42095;DHT22;27753;55.724;37.612;2022-12-24T15:53:20;2.90;99.90
42095;DHT22;27753;55.724;37.612;2022-12-24T15:56:04;2.90;99.90
42095;DHT22;27753;55.724;37.612;2022-12-24T15:58:41;2.90;99.90
42095;DHT22;27753;55.724;37.612;2022-12-24T16:03:53;2.90;99.90
42095;DHT22;27753;55.724;37.612;2022-12-24T16:06:22;2.90;99.90
42095;DHT22;27753;55.724;37.612;2022-12-24T16:08:48;2.90;99.90
42095;DHT22;27753;55.724;37.612;2022-12-24T16:11:50;2.90;99.90
42095;DHT22;27753;55.724;37.612;2022-12-24T16:14:17;3.00;99.90
42095;DHT22;27753;55.724;37.612;2022-12-24T16:16:49;3.00;99.90
42095;DHT22;27753;55.724;37.612;2022-12-24T16:19:21;2.90;99.90
42095;DHT22;27753;55.724;37.612;2022-12-24T16:21:53;2.90;99.90
42095;DHT22;27753;55.724;37.612;2022-12-24T16:24:23;2.90;99.90
42095;DHT22;27753;55.724;37.612;2022-12-24T16:26:50;2.90;99.90
42095;DHT22;27753;55.724;37.612;2022-12-24T16:29:17;2.90;99.90
42095;DHT22;27753;55.724;37.612;2022-12-24T16:31:57;3.00;99.90
42095;DHT22;27753;55.724;37.612;2022-12-24T16:34:29;2.90;99.90
42095;DHT22;27753;55.724;37.612;2022-12-24T16:36:56;2.90;99.90
42095;DHT22;27753;55.724;37.612;2022-12-24T16:39:30;2.90;99.90
42095;DHT22;27753;55.724;37.612;2022-12-24T16:41:58;3.00;99.90
42095;DHT22;27753;55.724;37.612;2022-12-24T16:44:43;3.00;99.90
42095;DHT22;27753;55.724;37.612;2022-12-24T16:47:31;2.90;99.90
42095;DHT22;27753;55.724;37.612;2022-12-24T16:50:00;2.90;99.90
42095;DHT22;27753;55.724;37.612;2022-12-24T16:52:28;2.90;99.90
42095;DHT22;27753;55.724;37.612;2022-12-24T16:54:58;3.00;99.90
42095;DHT22;27753;55.724;37.612;2022-12-24T16:57:24;3.00;99.90
42095;DHT22;27753;55.724;37.612;2022-12-24T16:59:50;3.00;99.90
42095;DHT22;27753;55.724;37.612;2022-12-24T17:02:21;3.00;99.90
42095;DHT22;27753;55.724;37.612;2022-12-24T17:04:47;3.00;99.90
42095;DHT22;27753;55.724;37.612;2022-12-24T17:07:16;3.00;99.90
42095;DHT22;27753;55.724;37.612;2022-12-24T17:09:43;3.00;99.90
42095;DHT22;27753;55.724;37.612;2022-12-24T17:12:09;3.00;99.90
42095;DHT22;27753;55.724;37.612;2022-12-24T17:14:37;3.00;99.90
42095;DHT22;27753;55.724;37.612;2022-12-24T17:17:03;3.00;99.90
42095;DHT22;27753;55.724;37.612;2022-12-24T17:19:29;3.00;99.90
42095;DHT22;27753;55.724;37.612;2022-12-24T17:21:55;2.90;99.90
42095;DHT22;27753;55.724;37.612;2022-12-24T17:24:21;2.90;99.90
42095;DHT22;27753;55.724;37.612;2022-12-24T17:26:47;2.90;99.90
42095;DHT22;27753;55.724;37.612;2022-12-24T17:29:13;2.90;99.90
42095;DHT22;27753;55.724;37.612;2022-12-24T17:31:44;2.90;99.90
42095;DHT22;27753;55.724;37.612;2022-12-24T17:34:10;3.00;99.90
42095;DHT22;27753;55.724;37.612;2022-12-24T17:36:36;3.00;99.90
42095;DHT22;27753;55.724;37.612;2022-12-24T17:39:02;2.90;99.90
42095;DHT22;27753;55.724;37.612;2022-12-24T17:41:28;2.90;99.90
42095;DHT22;27753;55.724;37.612;2022-12-24T17:43:54;2.90;99.90
42095;DHT22;27753;55.724;37.612;2022-12-24T17:46:22;3.00;99.90
42095;DHT22;27753;55.724;37.612;2022-12-24T17:48:49;2.90;99.90
42095;DHT22;27753;55.724;37.612;2022-12-24T17:51:16;2.90;99.90
42095;DHT22;27753;55.724;37.612;2022-12-24T17:53:43;2.90;99.90
42095;DHT22;27753;55.724;37.612;2022-12-24T17:56:10;2.90;99.90
42095;DHT22;27753;55.724;37.612;2022-12-24T17:58:40;2.80;99.90
42095;DHT22;27753;55.724;37.612;2022-12-24T18:01:22;2.80;99.90
42095;DHT22;27753;55.724;37.612;2022-12-24T18:03:49;2.80;99.90
42095;DHT22;27753;55.724;37.612;2022-12-24T18:06:22;2.80;99.90
42095;DHT22;27753;55.724;37.612;2022-12-24T18:08:48;2.80;99.90
42095;DHT22;27753;55.724;37.612;2022-12-24T18:13:50;2.80;99.90
42095;DHT22;27753;55.724;37.612;2022-12-24T18:16:18;2.90;99.90
42095;DHT22;27753;55.724;37.612;2022-12-24T18:18:45;2.80;99.90
42095;DHT22;27753;55.724;37.612;2022-12-24T18:21:12;2.80;99.90
42095;DHT22;27753;55.724;37.612;2022-12-24T18:23:42;2.80;99.90
42095;DHT22;27753;55.724;37.612;2022-12-24T18:26:08;2.80;99.90
42095;DHT22;27753;55.724;37.612;2022-12-24T18:28:34;2.90;99.90
42095;DHT22;27753;55.724;37.612;2022-12-24T18:31:03;2.90;99.90
42095;DHT22;27753;55.724;37.612;2022-12-24T18:33:32;2.90;99.90
42095;DHT22;27753;55.724;37.612;2022-12-24T18:36:04;2.80;99.90
42095;DHT22;27753;55.724;37.612;2022-12-24T18:38:31;2.80;99.90
42095;DHT22;27753;55.724;37.612;2022-12-24T18:41:06;2.80;99.90
42095;DHT22;27753;55.724;37.612;2022-12-24T18:43:35;2.70;99.90
42095;DHT22;27753;55.724;37.612;2022-12-24T18:46:09;2.80;99.90
42095;DHT22;27753;55.724;37.612;2022-12-24T18:48:36;2.80;99.90
42095;DHT22;27753;55.724;37.612;2022-12-24T18:51:02;2.80;99.90
42095;DHT22;27753;55.724;37.612;2022-12-24T18:53:29;2.70;99.90
42095;DHT22;27753;55.724;37.612;2022-12-24T18:55:55;2.70;99.90
42095;DHT22;27753;55.724;37.612;2022-12-24T18:58:26;2.60;99.90
42095;DHT22;27753;55.724;37.612;2022-12-24T19:00:55;2.50;99.90
42095;DHT22;27753;55.724;37.612;2022-12-24T19:03:26;2.40;99.90
42095;DHT22;27753;55.724;37.612;2022-12-24T19:05:52;2.30;99.90
42095;DHT22;27753;55.724;37.612;2022-12-24T19:08:18;2.30;99.90
42095;DHT22;27753;55.724;37.612;2022-12-24T19:10:47;2.20;99.90
42095;DHT22;27753;55.724;37.612;2022-12-24T19:13:12;2.10;99.90
42095;DHT22;27753;55.724;37.612;2022-12-24T19:15:39;2.00;99.90
42095;DHT22;27753;55.724;37.612;2022-12-24T19:18:08;2.00;99.90
42095;DHT22;27753;55.724;37.612;2022-12-24T19:20:37;1.90;99.90
42095;DHT22;27753;55.724;37.612;2022-12-24T19:23:06;1.90;99.90
42095;DHT22;27753;55.724;37.612;2022-12-24T19:25:36;1.90;99.90
42095;DHT22;27753;55.724;37.612;2022-12-24T19:28:02;1.90;99.90
42095;DHT22;27753;55.724;37.612;2022-12-24T19:30:40;1.90;99.90
42095;DHT22;27753;55.724;37.612;2022-12-24T19:33:09;1.90;99.90
42095;DHT22;27753;55.724;37.612;2022-12-24T19:35:35;1.90;99.90
42095;DHT22;27753;55.724;37.612;2022-12-24T19:38:01;2.00;99.90
42095;DHT22;27753;55.724;37.612;2022-12-24T19:40:27;2.00;99.90
42095;DHT22;27753;55.724;37.612;2022-12-24T19:42:53;2.00;99.90
42095;DHT22;27753;55.724;37.612;2022-12-24T19:45:20;2.10;99.90
42095;DHT22;27753;55.724;37.612;2022-12-24T19:47:47;2.10;99.90
42095;DHT22;27753;55.724;37.612;2022-12-24T19:50:14;2.10;99.90
42095;DHT22;27753;55.724;37.612;2022-12-24T19:52:43;2.20;99.90
42095;DHT22;27753;55.724;37.612;2022-12-24T19:55:10;2.10;99.90
42095;DHT22;27753;55.724;37.612;2022-12-24T19:57:37;2.00;99.90
42095;DHT22;27753;55.724;37.612;2022-12-24T20:00:05;1.90;99.90
42095;DHT22;27753;55.724;37.612;2022-12-24T20:02:31;1.80;99.90
42095;DHT22;27753;55.724;37.612;2022-12-24T20:05:00;1.70;99.90
42095;DHT22;27753;55.724;37.612;2022-12-24T20:07:29;1.60;99.90
42095;DHT22;27753;55.724;37.612;2022-12-24T20:09:54;1.60;99.90
42095;DHT22;27753;55.724;37.612;2022-12-24T20:12:20;1.50;99.90
42095;DHT22;27753;55.724;37.612;2022-12-24T20:14:46;1.50;99.90
42095;DHT22;27753;55.724;37.612;2022-12-24T20:17:12;1.50;99.90
42095;DHT22;27753;55.724;37.612;2022-12-24T20:19:39;1.50;99.90
42095;DHT22;27753;55.724;37.612;2022-12-24T20:22:05;1.40;99.90
42095;DHT22;27753;55.724;37.612;2022-12-24T20:24:31;1.40;99.90
42095;DHT22;27753;55.724;37.612;2022-12-24T20:26:57;1.40;99.90
42095;DHT22;27753;55.724;37.612;2022-12-24T20:29:23;1.40;99.90
42095;DHT22;27753;55.724;37.612;2022-12-24T20:31:49;1.30;99.90
42095;DHT22;27753;55.724;37.612;2022-12-24T20:34:14;1.30;99.90
42095;DHT22;27753;55.724;37.612;2022-12-24T20:36:41;1.30;99.90
42095;DHT22;27753;55.724;37.612;2022-12-24T20:39:07;1.30;99.90
42095;DHT22;27753;55.724;37.612;2022-12-24T20:41:33;1.30;99.90
42095;DHT22;27753;55.724;37.612;2022-12-24T20:44:00;1.30;99.90
42095;DHT22;27753;55.724;37.612;2022-12-24T20:46:27;1.30;99.90
42095;DHT22;27753;55.724;37.612;2022-12-24T20:48:54;1.20;99.90
42095;DHT22;27753;55.724;37.612;2022-12-24T20:51:25;1.20;99.90
42095;DHT22;27753;55.724;37.612;2022-12-24T20:53:57;1.20;99.90
42095;DHT22;27753;55.724;37.612;2022-12-24T20:56:24;1.20;99.90
42095;DHT22;27753;55.724;37.612;2022-12-24T20:58:50;1.20;99.90
42095;DHT22;27753;55.724;37.612;2022-12-24T21:01:19;1.30;99.90
42095;DHT22;27753;55.724;37.612;2022-12-24T21:03:46;1.30;99.90
42095;DHT22;27753;55.724;37.612;2022-12-24T21:06:12;1.30;99.90
42095;DHT22;27753;55.724;37.612;2022-12-24T21:08:39;1.40;99.90
42095;DHT22;27753;55.724;37.612;2022-12-24T21:11:05;1.30;99.90
42095;DHT22;27753;55.724;37.612;2022-12-24T21:13:51;1.30;99.90
42095;DHT22;27753;55.724;37.612;2022-12-24T21:16:17;1.30;99.90
42095;DHT22;27753;55.724;37.612;2022-12-24T21:18:42;1.30;99.90
42095;DHT22;27753;55.724;37.612;2022-12-24T21:21:08;1.40;99.90
42095;DHT22;27753;55.724;37.612;2022-12-24T21:23:34;1.50;99.90